sensor_id;sensor_type;location;lat;lon;timestamp;P1;durP1;ratioP1;P2;durP2;ratioP2
49502;SDS011;35409;48.776;9.204;2023-03-30T00:01:23;6.72;;;2.38;;
49502;SDS011;35409;48.776;9.204;2023-03-30T00:03:49;6.82;;;2.45;;
49502;SDS011;35409;48.776;9.204;2023-03-30T00:06:15;8.55;;;2.30;;
49502;SDS011;35409;48.776;9.204;2023-03-30T00:08:47;18.98;;;2.67;;
49502;SDS011;35409;48.776;9.204;2023-03-30T00:11:14;19.30;;;3.28;;
49502;SDS011;35409;48.776;9.204;2023-03-30T00:13:41;11.02;;;2.63;;
49502;SDS011;35409;48.776;9.204;2023-03-30T00:16:09;10.52;;;3.33;;
49502;SDS011;35409;48.776;9.204;2023-03-30T00:18:37;13.13;;;3.03;;
49502;SDS011;35409;48.776;9.204;2023-03-30T00:21:04;10.82;;;2.33;;
49502;SDS011;35409;48.776;9.204;2023-03-30T00:23:31;12.82;;;2.45;;
49502;SDS011;35409;48.776;9.204;2023-03-30T00:25:57;13.55;;;2.65;;
49502;SDS011;35409;48.776;9.204;2023-03-30T00:28:24;13.23;;;2.40;;
49502;SDS011;35409;48.776;9.204;2023-03-30T00:30:51;12.35;;;2.53;;
49502;SDS011;35409;48.776;9.204;2023-03-30T00:33:17;17.13;;;3.22;;
49502;SDS011;35409;48.776;9.204;2023-03-30T00:35:50;13.13;;;2.50;;
49502;SDS011;35409;48.776;9.204;2023-03-30T00:38:20;20.02;;;2.78;;
49502;SDS011;35409;48.776;9.204;2023-03-30T00:40:51;11.18;;;2.30;;
49502;SDS011;35409;48.776;9.204;2023-03-30T00:43:19;14.75;;;3.40;;
49502;SDS011;35409;48.776;9.204;2023-03-30T00:45:45;11.50;;;2.25;;
49502;SDS011;35409;48.776;9.204;2023-03-30T00:53:16;17.63;;;3.28;;
49502;SDS011;35409;48.776;9.204;2023-03-30T00:55:46;11.98;;;2.67;;
49502;SDS011;35409;48.776;9.204;2023-03-30T00:58:15;17.45;;;2.90;;
49502;SDS011;35409;48.776;9.204;2023-03-30T01:00:42;10.32;;;2.83;;
49502;SDS011;35409;48.776;9.204;2023-03-30T01:03:30;19.90;;;3.40;;
49502;SDS011;35409;48.776;9.204;2023-03-30T01:05:58;13.93;;;3.00;;
49502;SDS011;35409;48.776;9.204;2023-03-30T01:08:27;18.10;;;3.22;;
49502;SDS011;35409;48.776;9.204;2023-03-30T01:10:56;14.27;;;2.92;;
49502;SDS011;35409;48.776;9.204;2023-03-30T01:13:25;15.35;;;2.85;;
49502;SDS011;35409;48.776;9.204;2023-03-30T01:16:00;19.02;;;3.05;;
49502;SDS011;35409;48.776;9.204;2023-03-30T01:18:35;12.93;;;3.00;;
49502;SDS011;35409;48.776;9.204;2023-03-30T01:21:21;15.13;;;3.13;;
49502;SDS011;35409;48.776;9.204;2023-03-30T01:33:03;16.20;;;3.30;;
49502;SDS011;35409;48.776;9.204;2023-03-30T01:44:11;17.42;;;2.85;;
49502;SDS011;35409;48.776;9.204;2023-03-30T01:46:49;15.85;;;2.72;;
49502;SDS011;35409;48.776;9.204;2023-03-30T01:52:09;19.30;;;3.63;;
49502;SDS011;35409;48.776;9.204;2023-03-30T01:55:08;18.77;;;4.25;;
49502;SDS011;35409;48.776;9.204;2023-03-30T02:00:11;11.80;;;2.70;;
49502;SDS011;35409;48.776;9.204;2023-03-30T02:02:46;16.90;;;2.65;;
49502;SDS011;35409;48.776;9.204;2023-03-30T02:05:16;12.80;;;3.03;;
49502;SDS011;35409;48.776;9.204;2023-03-30T02:07:57;12.30;;;2.63;;
49502;SDS011;35409;48.776;9.204;2023-03-30T02:10:27;12.90;;;2.17;;
49502;SDS011;35409;48.776;9.204;2023-03-30T02:12:57;14.60;;;3.00;;
49502;SDS011;35409;48.776;9.204;2023-03-30T02:15:24;9.50;;;2.72;;
49502;SDS011;35409;48.776;9.204;2023-03-30T02:17:54;16.60;;;3.80;;
49502;SDS011;35409;48.776;9.204;2023-03-30T02:20:19;11.98;;;3.30;;
49502;SDS011;35409;48.776;9.204;2023-03-30T02:22:45;12.93;;;2.85;;
49502;SDS011;35409;48.776;9.204;2023-03-30T02:25:12;22.95;;;4.43;;
49502;SDS011;35409;48.776;9.204;2023-03-30T02:27:37;14.32;;;2.70;;
49502;SDS011;35409;48.776;9.204;2023-03-30T02:30:06;17.27;;;3.38;;
49502;SDS011;35409;48.776;9.204;2023-03-30T02:32:36;24.23;;;3.95;;
49502;SDS011;35409;48.776;9.204;2023-03-30T02:40:34;19.70;;;3.90;;
49502;SDS011;35409;48.776;9.204;2023-03-30T02:43:43;13.60;;;3.05;;
49502;SDS011;35409;48.776;9.204;2023-03-30T02:46:22;13.25;;;3.08;;
49502;SDS011;35409;48.776;9.204;2023-03-30T02:48:55;12.30;;;3.05;;
49502;SDS011;35409;48.776;9.204;2023-03-30T02:51:37;12.70;;;3.05;;
49502;SDS011;35409;48.776;9.204;2023-03-30T02:54:29;12.23;;;2.75;;
49502;SDS011;35409;48.776;9.204;2023-03-30T02:57:16;14.80;;;2.67;;
49502;SDS011;35409;48.776;9.204;2023-03-30T02:59:59;11.45;;;3.03;;
49502;SDS011;35409;48.776;9.204;2023-03-30T03:02:48;18.97;;;3.30;;
49502;SDS011;35409;48.776;9.204;2023-03-30T03:05:17;14.00;;;3.53;;
49502;SDS011;35409;48.776;9.204;2023-03-30T03:07:44;14.30;;;3.88;;
49502;SDS011;35409;48.776;9.204;2023-03-30T03:10:12;23.65;;;3.90;;
49502;SDS011;35409;48.776;9.204;2023-03-30T03:12:38;11.13;;;3.38;;
49502;SDS011;35409;48.776;9.204;2023-03-30T03:15:06;15.85;;;3.88;;
49502;SDS011;35409;48.776;9.204;2023-03-30T03:17:32;14.73;;;2.97;;
49502;SDS011;35409;48.776;9.204;2023-03-30T03:20:01;20.92;;;3.38;;
49502;SDS011;35409;48.776;9.204;2023-03-30T03:22:27;16.17;;;4.10;;
49502;SDS011;35409;48.776;9.204;2023-03-30T03:24:53;27.40;;;4.43;;
49502;SDS011;35409;48.776;9.204;2023-03-30T03:27:19;22.13;;;4.15;;
49502;SDS011;35409;48.776;9.204;2023-03-30T03:29:45;21.45;;;4.13;;
49502;SDS011;35409;48.776;9.204;2023-03-30T03:32:11;23.77;;;3.63;;
49502;SDS011;35409;48.776;9.204;2023-03-30T03:34:37;18.73;;;3.63;;
49502;SDS011;35409;48.776;9.204;2023-03-30T03:37:03;30.15;;;4.72;;
49502;SDS011;35409;48.776;9.204;2023-03-30T03:39:30;20.63;;;4.40;;
49502;SDS011;35409;48.776;9.204;2023-03-30T03:41:56;14.32;;;3.53;;
49502;SDS011;35409;48.776;9.204;2023-03-30T03:44:21;16.88;;;3.70;;
49502;SDS011;35409;48.776;9.204;2023-03-30T03:46:47;17.52;;;4.00;;
49502;SDS011;35409;48.776;9.204;2023-03-30T03:49:12;16.40;;;3.38;;
49502;SDS011;35409;48.776;9.204;2023-03-30T03:51:38;13.15;;;3.35;;
49502;SDS011;35409;48.776;9.204;2023-03-30T03:54:04;18.77;;;4.65;;
49502;SDS011;35409;48.776;9.204;2023-03-30T03:56:29;23.48;;;4.35;;
49502;SDS011;35409;48.776;9.204;2023-03-30T03:58:55;18.15;;;3.78;;
49502;SDS011;35409;48.776;9.204;2023-03-30T04:01:21;12.95;;;3.25;;
49502;SDS011;35409;48.776;9.204;2023-03-30T04:03:46;11.77;;;2.83;;
49502;SDS011;35409;48.776;9.204;2023-03-30T04:06:12;18.95;;;4.18;;
49502;SDS011;35409;48.776;9.204;2023-03-30T04:08:38;19.60;;;3.70;;
49502;SDS011;35409;48.776;9.204;2023-03-30T04:11:07;23.42;;;3.47;;
49502;SDS011;35409;48.776;9.204;2023-03-30T04:13:35;16.27;;;3.53;;
49502;SDS011;35409;48.776;9.204;2023-03-30T04:16:02;12.40;;;3.90;;
49502;SDS011;35409;48.776;9.204;2023-03-30T04:18:28;22.13;;;4.32;;
49502;SDS011;35409;48.776;9.204;2023-03-30T04:21:01;16.37;;;3.50;;
49502;SDS011;35409;48.776;9.204;2023-03-30T04:23:29;19.02;;;4.35;;
49502;SDS011;35409;48.776;9.204;2023-03-30T04:25:59;21.38;;;3.97;;
49502;SDS011;35409;48.776;9.204;2023-03-30T04:28:28;17.10;;;4.00;;
49502;SDS011;35409;48.776;9.204;2023-03-30T04:30:58;12.48;;;3.53;;
49502;SDS011;35409;48.776;9.204;2023-03-30T04:33:25;13.15;;;3.22;;
49502;SDS011;35409;48.776;9.204;2023-03-30T04:35:50;17.67;;;3.75;;
49502;SDS011;35409;48.776;9.204;2023-03-30T04:38:16;14.63;;;3.53;;
49502;SDS011;35409;48.776;9.204;2023-03-30T04:40:49;14.13;;;4.50;;
49502;SDS011;35409;48.776;9.204;2023-03-30T04:43:18;14.48;;;3.50;;
49502;SDS011;35409;48.776;9.204;2023-03-30T04:45:49;11.02;;;3.95;;
49502;SDS011;35409;48.776;9.204;2023-03-30T04:48:15;16.42;;;3.65;;
49502;SDS011;35409;48.776;9.204;2023-03-30T04:50:41;14.45;;;4.85;;
49502;SDS011;35409;48.776;9.204;2023-03-30T04:53:08;15.15;;;3.22;;
49502;SDS011;35409;48.776;9.204;2023-03-30T04:55:34;12.90;;;3.63;;
49502;SDS011;35409;48.776;9.204;2023-03-30T04:58:00;17.10;;;4.25;;
49502;SDS011;35409;48.776;9.204;2023-03-30T05:00:26;18.25;;;4.38;;
49502;SDS011;35409;48.776;9.204;2023-03-30T05:02:52;16.30;;;5.05;;
49502;SDS011;35409;48.776;9.204;2023-03-30T05:05:17;17.48;;;4.40;;
49502;SDS011;35409;48.776;9.204;2023-03-30T05:07:43;21.98;;;4.10;;
49502;SDS011;35409;48.776;9.204;2023-03-30T05:10:10;22.08;;;4.22;;
49502;SDS011;35409;48.776;9.204;2023-03-30T05:12:36;21.08;;;4.20;;
49502;SDS011;35409;48.776;9.204;2023-03-30T05:15:01;12.65;;;3.35;;
49502;SDS011;35409;48.776;9.204;2023-03-30T05:17:27;15.85;;;3.75;;
49502;SDS011;35409;48.776;9.204;2023-03-30T05:19:57;21.07;;;4.07;;
49502;SDS011;35409;48.776;9.204;2023-03-30T05:22:22;18.15;;;4.20;;
49502;SDS011;35409;48.776;9.204;2023-03-30T05:24:48;19.52;;;4.60;;
49502;SDS011;35409;48.776;9.204;2023-03-30T05:27:13;22.77;;;5.05;;
49502;SDS011;35409;48.776;9.204;2023-03-30T05:29:39;10.20;;;3.38;;
49502;SDS011;35409;48.776;9.204;2023-03-30T05:32:05;18.33;;;3.67;;
49502;SDS011;35409;48.776;9.204;2023-03-30T05:34:30;13.15;;;3.40;;
49502;SDS011;35409;48.776;9.204;2023-03-30T05:36:56;22.55;;;4.68;;
49502;SDS011;35409;48.776;9.204;2023-03-30T05:39:21;19.85;;;4.20;;
49502;SDS011;35409;48.776;9.204;2023-03-30T05:41:47;22.23;;;4.88;;
49502;SDS011;35409;48.776;9.204;2023-03-30T05:44:13;19.50;;;4.82;;
49502;SDS011;35409;48.776;9.204;2023-03-30T05:46:38;20.05;;;4.30;;
49502;SDS011;35409;48.776;9.204;2023-03-30T05:49:04;20.02;;;4.47;;
49502;SDS011;35409;48.776;9.204;2023-03-30T05:51:30;15.07;;;3.65;;
49502;SDS011;35409;48.776;9.204;2023-03-30T05:53:55;18.85;;;3.97;;
49502;SDS011;35409;48.776;9.204;2023-03-30T05:56:21;18.63;;;4.32;;
49502;SDS011;35409;48.776;9.204;2023-03-30T05:58:48;16.15;;;3.72;;
49502;SDS011;35409;48.776;9.204;2023-03-30T06:01:14;16.40;;;4.10;;
49502;SDS011;35409;48.776;9.204;2023-03-30T06:03:40;19.17;;;4.47;;
49502;SDS011;35409;48.776;9.204;2023-03-30T06:06:06;16.23;;;4.03;;
49502;SDS011;35409;48.776;9.204;2023-03-30T06:08:32;19.30;;;3.88;;
49502;SDS011;35409;48.776;9.204;2023-03-30T06:10:58;20.27;;;4.78;;
49502;SDS011;35409;48.776;9.204;2023-03-30T06:13:25;16.20;;;3.63;;
49502;SDS011;35409;48.776;9.204;2023-03-30T06:15:51;18.95;;;4.45;;
49502;SDS011;35409;48.776;9.204;2023-03-30T06:18:16;15.27;;;4.30;;
49502;SDS011;35409;48.776;9.204;2023-03-30T06:20:44;23.30;;;4.10;;
49502;SDS011;35409;48.776;9.204;2023-03-30T06:23:11;21.02;;;4.75;;
49502;SDS011;35409;48.776;9.204;2023-03-30T06:25:37;16.17;;;4.90;;
49502;SDS011;35409;48.776;9.204;2023-03-30T06:28:02;14.95;;;3.13;;
49502;SDS011;35409;48.776;9.204;2023-03-30T06:30:28;17.92;;;4.43;;
49502;SDS011;35409;48.776;9.204;2023-03-30T06:32:54;21.55;;;4.50;;
49502;SDS011;35409;48.776;9.204;2023-03-30T06:35:19;18.67;;;3.63;;
49502;SDS011;35409;48.776;9.204;2023-03-30T06:37:45;24.33;;;4.80;;
49502;SDS011;35409;48.776;9.204;2023-03-30T06:40:11;18.45;;;3.50;;
49502;SDS011;35409;48.776;9.204;2023-03-30T06:42:37;22.75;;;4.25;;
49502;SDS011;35409;48.776;9.204;2023-03-30T06:45:08;17.27;;;3.53;;
49502;SDS011;35409;48.776;9.204;2023-03-30T06:47:35;21.27;;;5.75;;
49502;SDS011;35409;48.776;9.204;2023-03-30T06:50:01;15.95;;;4.38;;
49502;SDS011;35409;48.776;9.204;2023-03-30T06:52:28;12.82;;;4.28;;
49502;SDS011;35409;48.776;9.204;2023-03-30T06:54:58;17.42;;;3.83;;
49502;SDS011;35409;48.776;9.204;2023-03-30T06:57:23;21.80;;;4.60;;
49502;SDS011;35409;48.776;9.204;2023-03-30T06:59:49;15.50;;;4.25;;
49502;SDS011;35409;48.776;9.204;2023-03-30T07:02:15;17.20;;;3.92;;
49502;SDS011;35409;48.776;9.204;2023-03-30T07:04:40;13.30;;;3.15;;
49502;SDS011;35409;48.776;9.204;2023-03-30T07:07:06;17.45;;;3.92;;
49502;SDS011;35409;48.776;9.204;2023-03-30T07:09:32;20.23;;;4.07;;
49502;SDS011;35409;48.776;9.204;2023-03-30T07:11:58;16.90;;;3.97;;
49502;SDS011;35409;48.776;9.204;2023-03-30T07:14:24;20.10;;;4.78;;
49502;SDS011;35409;48.776;9.204;2023-03-30T07:16:49;18.42;;;4.15;;
49502;SDS011;35409;48.776;9.204;2023-03-30T07:19:17;17.70;;;4.35;;
49502;SDS011;35409;48.776;9.204;2023-03-30T07:21:42;21.63;;;4.03;;
49502;SDS011;35409;48.776;9.204;2023-03-30T07:24:08;21.08;;;3.75;;
49502;SDS011;35409;48.776;9.204;2023-03-30T07:26:34;19.23;;;4.07;;
49502;SDS011;35409;48.776;9.204;2023-03-30T07:29:00;15.80;;;4.32;;
49502;SDS011;35409;48.776;9.204;2023-03-30T07:31:26;14.35;;;4.20;;
49502;SDS011;35409;48.776;9.204;2023-03-30T07:33:52;17.75;;;3.65;;
49502;SDS011;35409;48.776;9.204;2023-03-30T07:36:18;13.82;;;4.57;;
49502;SDS011;35409;48.776;9.204;2023-03-30T07:38:43;16.27;;;4.50;;
49502;SDS011;35409;48.776;9.204;2023-03-30T07:41:11;19.80;;;4.53;;
49502;SDS011;35409;48.776;9.204;2023-03-30T07:43:38;12.32;;;4.05;;
49502;SDS011;35409;48.776;9.204;2023-03-30T07:46:05;16.23;;;4.43;;
49502;SDS011;35409;48.776;9.204;2023-03-30T07:48:31;10.98;;;4.13;;
49502;SDS011;35409;48.776;9.204;2023-03-30T07:51:00;14.98;;;4.70;;
49502;SDS011;35409;48.776;9.204;2023-03-30T07:53:26;14.15;;;4.28;;
49502;SDS011;35409;48.776;9.204;2023-03-30T07:55:52;17.17;;;4.63;;
49502;SDS011;35409;48.776;9.204;2023-03-30T07:58:17;19.27;;;6.47;;
49502;SDS011;35409;48.776;9.204;2023-03-30T08:00:43;15.57;;;5.45;;
49502;SDS011;35409;48.776;9.204;2023-03-30T08:03:11;22.63;;;4.50;;
49502;SDS011;35409;48.776;9.204;2023-03-30T08:05:36;13.20;;;4.63;;
49502;SDS011;35409;48.776;9.204;2023-03-30T08:08:02;19.15;;;4.82;;
49502;SDS011;35409;48.776;9.204;2023-03-30T08:10:28;19.20;;;4.50;;
49502;SDS011;35409;48.776;9.204;2023-03-30T08:12:54;15.32;;;4.60;;
49502;SDS011;35409;48.776;9.204;2023-03-30T08:15:20;7.18;;;3.55;;
49502;SDS011;35409;48.776;9.204;2023-03-30T08:17:46;13.10;;;4.47;;
49502;SDS011;35409;48.776;9.204;2023-03-30T08:20:12;12.52;;;4.13;;
49502;SDS011;35409;48.776;9.204;2023-03-30T08:22:39;17.60;;;3.97;;
49502;SDS011;35409;48.776;9.204;2023-03-30T08:25:06;14.60;;;3.85;;
49502;SDS011;35409;48.776;9.204;2023-03-30T08:27:33;10.63;;;4.28;;
49502;SDS011;35409;48.776;9.204;2023-03-30T08:29:59;14.63;;;4.15;;
49502;SDS011;35409;48.776;9.204;2023-03-30T08:32:26;12.20;;;4.07;;
49502;SDS011;35409;48.776;9.204;2023-03-30T08:34:51;12.30;;;4.03;;
49502;SDS011;35409;48.776;9.204;2023-03-30T08:37:18;10.82;;;3.75;;
49502;SDS011;35409;48.776;9.204;2023-03-30T08:39:45;8.88;;;2.92;;
49502;SDS011;35409;48.776;9.204;2023-03-30T08:42:34;14.35;;;3.25;;
49502;SDS011;35409;48.776;9.204;2023-03-30T08:44:57;7.95;;;3.22;;
49502;SDS011;35409;48.776;9.204;2023-03-30T08:47:33;11.02;;;3.85;;
49502;SDS011;35409;48.776;9.204;2023-03-30T08:50:15;13.95;;;4.35;;
49502;SDS011;35409;48.776;9.204;2023-03-30T08:52:43;11.90;;;3.70;;
49502;SDS011;35409;48.776;9.204;2023-03-30T09:02:45;16.08;;;3.80;;
49502;SDS011;35409;48.776;9.204;2023-03-30T09:05:14;9.60;;;3.80;;
49502;SDS011;35409;48.776;9.204;2023-03-30T09:08:25;13.52;;;4.10;;
49502;SDS011;35409;48.776;9.204;2023-03-30T09:10:34;11.15;;;3.45;;
49502;SDS011;35409;48.776;9.204;2023-03-30T09:13:02;13.57;;;3.60;;
49502;SDS011;35409;48.776;9.204;2023-03-30T09:15:30;9.55;;;2.97;;
49502;SDS011;35409;48.776;9.204;2023-03-30T09:20:26;7.25;;;2.85;;
49502;SDS011;35409;48.776;9.204;2023-03-30T09:22:53;7.93;;;3.10;;
49502;SDS011;35409;48.776;9.204;2023-03-30T09:30:21;7.53;;;2.33;;
49502;SDS011;35409;48.776;9.204;2023-03-30T09:32:53;8.27;;;2.80;;
49502;SDS011;35409;48.776;9.204;2023-03-30T09:35:24;6.90;;;2.13;;
49502;SDS011;35409;48.776;9.204;2023-03-30T09:37:51;4.93;;;1.92;;
49502;SDS011;35409;48.776;9.204;2023-03-30T09:46:08;6.25;;;2.05;;
49502;SDS011;35409;48.776;9.204;2023-03-30T09:48:38;4.55;;;1.95;;
49502;SDS011;35409;48.776;9.204;2023-03-30T09:51:12;6.18;;;2.35;;
49502;SDS011;35409;48.776;9.204;2023-03-30T09:53:39;11.80;;;1.92;;
49502;SDS011;35409;48.776;9.204;2023-03-30T09:56:07;6.50;;;2.28;;
49502;SDS011;35409;48.776;9.204;2023-03-30T10:01:10;4.90;;;1.90;;
49502;SDS011;35409;48.776;9.204;2023-03-30T10:03:42;5.95;;;1.83;;
49502;SDS011;35409;48.776;9.204;2023-03-30T10:06:14;4.57;;;2.00;;
49502;SDS011;35409;48.776;9.204;2023-03-30T10:08:42;5.68;;;2.15;;
49502;SDS011;35409;48.776;9.204;2023-03-30T10:11:09;3.88;;;2.13;;
49502;SDS011;35409;48.776;9.204;2023-03-30T10:13:36;6.13;;;2.50;;
49502;SDS011;35409;48.776;9.204;2023-03-30T10:16:04;4.50;;;2.17;;
49502;SDS011;35409;48.776;9.204;2023-03-30T10:18:39;10.77;;;2.90;;
49502;SDS011;35409;48.776;9.204;2023-03-30T10:21:08;2.42;;;2.10;;
49502;SDS011;35409;48.776;9.204;2023-03-30T10:23:41;8.68;;;2.80;;
49502;SDS011;35409;48.776;9.204;2023-03-30T10:26:15;6.22;;;2.00;;
49502;SDS011;35409;48.776;9.204;2023-03-30T10:28:54;5.93;;;2.42;;
49502;SDS011;35409;48.776;9.204;2023-03-30T10:31:20;4.25;;;2.35;;
49502;SDS011;35409;48.776;9.204;2023-03-30T10:33:47;5.03;;;2.55;;
49502;SDS011;35409;48.776;9.204;2023-03-30T10:36:14;6.95;;;2.92;;
49502;SDS011;35409;48.776;9.204;2023-03-30T10:38:41;8.40;;;2.53;;
49502;SDS011;35409;48.776;9.204;2023-03-30T10:41:14;9.65;;;2.88;;
49502;SDS011;35409;48.776;9.204;2023-03-30T10:43:41;4.43;;;2.22;;
49502;SDS011;35409;48.776;9.204;2023-03-30T10:46:13;5.18;;;2.72;;
49502;SDS011;35409;48.776;9.204;2023-03-30T10:51:16;4.00;;;2.60;;
49502;SDS011;35409;48.776;9.204;2023-03-30T10:59:04;7.07;;;2.22;;
49502;SDS011;35409;48.776;9.204;2023-03-30T11:04:09;7.90;;;3.05;;
49502;SDS011;35409;48.776;9.204;2023-03-30T11:06:38;11.90;;;3.13;;
49502;SDS011;35409;48.776;9.204;2023-03-30T11:09:06;6.55;;;2.10;;
49502;SDS011;35409;48.776;9.204;2023-03-30T11:11:46;4.25;;;2.58;;
49502;SDS011;35409;48.776;9.204;2023-03-30T11:14:15;9.32;;;3.10;;
49502;SDS011;35409;48.776;9.204;2023-03-30T11:16:51;11.88;;;2.83;;
49502;SDS011;35409;48.776;9.204;2023-03-30T11:19:19;4.88;;;2.40;;
49502;SDS011;35409;48.776;9.204;2023-03-30T11:24:19;5.97;;;2.75;;
49502;SDS011;35409;48.776;9.204;2023-03-30T11:29:23;7.18;;;2.65;;
49502;SDS011;35409;48.776;9.204;2023-03-30T11:37:12;6.75;;;2.33;;
49502;SDS011;35409;48.776;9.204;2023-03-30T11:39:47;9.27;;;3.05;;
49502;SDS011;35409;48.776;9.204;2023-03-30T11:42:17;9.70;;;3.42;;
49502;SDS011;35409;48.776;9.204;2023-03-30T11:44:46;8.02;;;2.60;;
49502;SDS011;35409;48.776;9.204;2023-03-30T11:50:11;10.23;;;2.92;;
49502;SDS011;35409;48.776;9.204;2023-03-30T11:55:28;9.82;;;3.03;;
49502;SDS011;35409;48.776;9.204;2023-03-30T12:00:40;10.05;;;3.05;;
49502;SDS011;35409;48.776;9.204;2023-03-30T12:03:12;9.48;;;2.17;;
49502;SDS011;35409;48.776;9.204;2023-03-30T12:05:45;4.43;;;2.33;;
49502;SDS011;35409;48.776;9.204;2023-03-30T12:08:25;8.15;;;2.72;;
49502;SDS011;35409;48.776;9.204;2023-03-30T12:11:01;6.10;;;2.72;;
49502;SDS011;35409;48.776;9.204;2023-03-30T12:13:31;5.75;;;3.30;;
49502;SDS011;35409;48.776;9.204;2023-03-30T12:15:59;7.82;;;2.83;;
49502;SDS011;35409;48.776;9.204;2023-03-30T12:18:38;10.80;;;2.93;;
49502;SDS011;35409;48.776;9.204;2023-03-30T12:23:44;9.00;;;2.95;;
49502;SDS011;35409;48.776;9.204;2023-03-30T12:31:10;9.98;;;3.50;;
49502;SDS011;35409;48.776;9.204;2023-03-30T12:33:49;12.27;;;4.07;;
49502;SDS011;35409;48.776;9.204;2023-03-30T12:38:58;5.65;;;2.85;;
49502;SDS011;35409;48.776;9.204;2023-03-30T12:41:26;8.07;;;3.13;;
49502;SDS011;35409;48.776;9.204;2023-03-30T12:46:48;8.00;;;2.95;;
49502;SDS011;35409;48.776;9.204;2023-03-30T12:49:41;9.55;;;3.17;;
49502;SDS011;35409;48.776;9.204;2023-03-30T13:04:04;7.10;;;2.67;;
49502;SDS011;35409;48.776;9.204;2023-03-30T13:06:34;6.40;;;2.75;;
49502;SDS011;35409;48.776;9.204;2023-03-30T13:19:24;6.05;;;2.35;;
49502;SDS011;35409;48.776;9.204;2023-03-30T13:21:54;6.03;;;2.40;;
49502;SDS011;35409;48.776;9.204;2023-03-30T13:27:30;5.75;;;2.13;;
49502;SDS011;35409;48.776;9.204;2023-03-30T13:32:40;3.50;;;2.13;;
49502;SDS011;35409;48.776;9.204;2023-03-30T13:49:21;7.28;;;2.30;;
49502;SDS011;35409;48.776;9.204;2023-03-30T13:52:01;9.90;;;3.25;;
49502;SDS011;35409;48.776;9.204;2023-03-30T13:54:39;10.13;;;3.00;;
49502;SDS011;35409;48.776;9.204;2023-03-30T13:57:19;6.45;;;2.22;;
49502;SDS011;35409;48.776;9.204;2023-03-30T13:59:49;6.03;;;2.25;;
49502;SDS011;35409;48.776;9.204;2023-03-30T14:02:18;8.73;;;3.13;;
49502;SDS011;35409;48.776;9.204;2023-03-30T14:04:46;5.72;;;2.15;;
49502;SDS011;35409;48.776;9.204;2023-03-30T14:07:20;7.93;;;2.67;;
49502;SDS011;35409;48.776;9.204;2023-03-30T14:10:05;6.28;;;2.20;;
49502;SDS011;35409;48.776;9.204;2023-03-30T14:12:39;7.53;;;2.28;;
49502;SDS011;35409;48.776;9.204;2023-03-30T14:17:47;7.28;;;1.80;;
49502;SDS011;35409;48.776;9.204;2023-03-30T14:23:31;6.32;;;1.85;;
49502;SDS011;35409;48.776;9.204;2023-03-30T14:26:03;5.22;;;1.73;;
49502;SDS011;35409;48.776;9.204;2023-03-30T14:28:36;4.57;;;1.88;;
49502;SDS011;35409;48.776;9.204;2023-03-30T14:31:03;5.63;;;2.28;;
49502;SDS011;35409;48.776;9.204;2023-03-30T14:33:36;6.72;;;2.17;;
49502;SDS011;35409;48.776;9.204;2023-03-30T14:36:04;5.38;;;1.52;;
49502;SDS011;35409;48.776;9.204;2023-03-30T14:38:33;4.68;;;1.83;;
49502;SDS011;35409;48.776;9.204;2023-03-30T14:41:07;3.78;;;1.60;;
49502;SDS011;35409;48.776;9.204;2023-03-30T14:43:50;6.22;;;1.95;;
49502;SDS011;35409;48.776;9.204;2023-03-30T14:46:18;9.70;;;2.28;;
49502;SDS011;35409;48.776;9.204;2023-03-30T14:48:47;8.68;;;1.92;;
49502;SDS011;35409;48.776;9.204;2023-03-30T14:51:58;6.05;;;1.92;;
49502;SDS011;35409;48.776;9.204;2023-03-30T14:54:05;6.22;;;1.90;;
49502;SDS011;35409;48.776;9.204;2023-03-30T14:56:32;4.45;;;1.60;;
49502;SDS011;35409;48.776;9.204;2023-03-30T14:58:59;4.65;;;1.73;;
49502;SDS011;35409;48.776;9.204;2023-03-30T15:01:26;5.72;;;1.70;;
49502;SDS011;35409;48.776;9.204;2023-03-30T15:03:57;6.78;;;1.92;;
49502;SDS011;35409;48.776;9.204;2023-03-30T15:06:27;6.88;;;1.30;;
49502;SDS011;35409;48.776;9.204;2023-03-30T15:08:57;10.43;;;1.90;;
49502;SDS011;35409;48.776;9.204;2023-03-30T15:11:28;8.25;;;1.95;;
49502;SDS011;35409;48.776;9.204;2023-03-30T15:13:57;4.30;;;1.80;;
49502;SDS011;35409;48.776;9.204;2023-03-30T15:16:28;7.95;;;1.80;;
49502;SDS011;35409;48.776;9.204;2023-03-30T15:19:04;6.15;;;1.80;;
49502;SDS011;35409;48.776;9.204;2023-03-30T15:21:36;9.82;;;2.08;;
49502;SDS011;35409;48.776;9.204;2023-03-30T15:24:06;3.53;;;1.90;;
49502;SDS011;35409;48.776;9.204;2023-03-30T15:28:58;5.00;;;1.58;;
49502;SDS011;35409;48.776;9.204;2023-03-30T15:31:25;4.00;;;2.03;;
49502;SDS011;35409;48.776;9.204;2023-03-30T15:33:53;7.05;;;1.60;;
49502;SDS011;35409;48.776;9.204;2023-03-30T15:36:25;6.80;;;1.63;;
49502;SDS011;35409;48.776;9.204;2023-03-30T15:39:01;6.10;;;1.67;;
49502;SDS011;35409;48.776;9.204;2023-03-30T15:44:21;6.43;;;1.90;;
49502;SDS011;35409;48.776;9.204;2023-03-30T15:46:47;2.83;;;1.52;;
49502;SDS011;35409;48.776;9.204;2023-03-30T15:49:16;4.75;;;1.80;;
49502;SDS011;35409;48.776;9.204;2023-03-30T15:51:49;3.40;;;1.15;;
49502;SDS011;35409;48.776;9.204;2023-03-30T15:55:00;5.32;;;1.10;;
49502;SDS011;35409;48.776;9.204;2023-03-30T15:59:39;3.30;;;1.45;;
49502;SDS011;35409;48.776;9.204;2023-03-30T16:02:21;5.28;;;1.35;;
49502;SDS011;35409;48.776;9.204;2023-03-30T16:04:47;3.42;;;1.25;;
49502;SDS011;35409;48.776;9.204;2023-03-30T16:07:18;3.17;;;0.70;;
49502;SDS011;35409;48.776;9.204;2023-03-30T16:09:45;3.15;;;1.27;;
49502;SDS011;35409;48.776;9.204;2023-03-30T16:12:13;3.42;;;0.85;;
49502;SDS011;35409;48.776;9.204;2023-03-30T16:14:47;3.00;;;1.17;;
49502;SDS011;35409;48.776;9.204;2023-03-30T16:17:14;2.40;;;1.10;;
49502;SDS011;35409;48.776;9.204;2023-03-30T16:19:40;3.92;;;1.15;;
49502;SDS011;35409;48.776;9.204;2023-03-30T16:22:06;4.88;;;1.10;;
49502;SDS011;35409;48.776;9.204;2023-03-30T16:24:33;2.85;;;1.02;;
49502;SDS011;35409;48.776;9.204;2023-03-30T16:26:59;4.45;;;1.10;;
49502;SDS011;35409;48.776;9.204;2023-03-30T16:29:25;2.78;;;0.90;;
49502;SDS011;35409;48.776;9.204;2023-03-30T16:31:51;5.75;;;1.75;;
49502;SDS011;35409;48.776;9.204;2023-03-30T16:34:17;3.03;;;0.90;;
49502;SDS011;35409;48.776;9.204;2023-03-30T16:36:44;8.65;;;1.50;;
49502;SDS011;35409;48.776;9.204;2023-03-30T16:39:17;4.38;;;1.05;;
49502;SDS011;35409;48.776;9.204;2023-03-30T16:41:44;4.00;;;1.10;;
49502;SDS011;35409;48.776;9.204;2023-03-30T16:44:11;5.05;;;1.02;;
49502;SDS011;35409;48.776;9.204;2023-03-30T16:46:36;4.13;;;1.15;;
49502;SDS011;35409;48.776;9.204;2023-03-30T16:49:02;3.10;;;0.90;;
49502;SDS011;35409;48.776;9.204;2023-03-30T16:51:27;7.05;;;1.67;;
49502;SDS011;35409;48.776;9.204;2023-03-30T16:53:53;6.75;;;1.13;;
49502;SDS011;35409;48.776;9.204;2023-03-30T16:56:18;4.10;;;1.20;;
49502;SDS011;35409;48.776;9.204;2023-03-30T16:58:47;4.63;;;1.13;;
49502;SDS011;35409;48.776;9.204;2023-03-30T17:01:16;3.60;;;1.00;;
49502;SDS011;35409;48.776;9.204;2023-03-30T17:03:42;2.58;;;0.90;;
49502;SDS011;35409;48.776;9.204;2023-03-30T17:06:08;6.63;;;1.73;;
49502;SDS011;35409;48.776;9.204;2023-03-30T17:08:34;4.07;;;0.93;;
49502;SDS011;35409;48.776;9.204;2023-03-30T17:11:00;3.35;;;0.93;;
49502;SDS011;35409;48.776;9.204;2023-03-30T17:13:28;2.45;;;1.15;;
49502;SDS011;35409;48.776;9.204;2023-03-30T17:15:55;4.18;;;1.00;;
49502;SDS011;35409;48.776;9.204;2023-03-30T17:18:23;3.78;;;0.85;;
49502;SDS011;35409;48.776;9.204;2023-03-30T17:20:59;2.05;;;0.70;;
49502;SDS011;35409;48.776;9.204;2023-03-30T17:23:26;3.45;;;1.10;;
49502;SDS011;35409;48.776;9.204;2023-03-30T17:25:54;2.42;;;1.00;;
49502;SDS011;35409;48.776;9.204;2023-03-30T17:28:33;3.42;;;1.45;;